Terminal Aerodrome Forecast
Issued by NWS Albany, NY

Home | Current Version | Previous Version | Text Only | Print | Product List | Glossary On
Versions: 1 2 3 4 5 6 7 8 9 10 11 12 13 14 15 16 17 18 19 20 21 22 23 24 25 26 27
000
FTUS41 KALY 252300
TAFPOU
TAF
KPOU 252331Z 2600/2624 VRB03KT P6SM OVC250
     FM260500 00000KT P6SM BKN150 OVC250
     FM260900 35003KT P6SM VCSH SCT040 OVC100
     FM261200 36003KT 2SM -SN BR OVC010
     FM261500 01005KT 3/4SM -SN BR VV006
     FM261700 02006KT 1/2SM SN FG VV004=

USA.gov is the U.S. government's official web portal to all federal, state and local government web resources and services.